sensor_id;sensor_type;location;lat;lon;timestamp;pressure;altitude;pressure_sealevel;temperature;humidity
67029;BME280;53934;52.142;11.738;2022-10-16T00:01:53;100644.25;;;17.57;78.06
67029;BME280;53934;52.142;11.738;2022-10-16T00:04:19;100642.16;;;17.71;77.89
67029;BME280;53934;52.142;11.738;2022-10-16T00:06:46;100645.63;;;17.40;78.73
67029;BME280;53934;52.142;11.738;2022-10-16T00:09:12;100649.88;;;17.20;79.50
67029;BME280;53934;52.142;11.738;2022-10-16T00:11:39;100655.44;;;16.95;80.31
67029;BME280;53934;52.142;11.738;2022-10-16T00:14:06;100661.66;;;17.27;79.00
67029;BME280;53934;52.142;11.738;2022-10-16T00:16:33;100652.47;;;17.42;78.24
67029;BME280;53934;52.142;11.738;2022-10-16T00:19:01;100651.28;;;17.35;77.59
67029;BME280;53934;52.142;11.738;2022-10-16T00:21:29;100649.63;;;17.23;77.69
67029;BME280;53934;52.142;11.738;2022-10-16T00:23:56;100646.53;;;17.07;77.94
67029;BME280;53934;52.142;11.738;2022-10-16T00:26:24;100654.34;;;16.97;78.63
67029;BME280;53934;52.142;11.738;2022-10-16T00:28:51;100656.06;;;16.76;78.67
67029;BME280;53934;52.142;11.738;2022-10-16T00:31:18;100663.41;;;16.95;78.07
67029;BME280;53934;52.142;11.738;2022-10-16T00:33:44;100660.25;;;16.79;77.80
67029;BME280;53934;52.142;11.738;2022-10-16T00:36:13;100652.81;;;16.95;77.16
67029;BME280;53934;52.142;11.738;2022-10-16T00:38:40;100661.09;;;16.57;78.25
67029;BME280;53934;52.142;11.738;2022-10-16T00:41:06;100659.28;;;16.58;78.52
67029;BME280;53934;52.142;11.738;2022-10-16T00:43:34;100655.41;;;16.50;78.87
67029;BME280;53934;52.142;11.738;2022-10-16T00:46:02;100663.94;;;16.43;79.67
67029;BME280;53934;52.142;11.738;2022-10-16T00:48:29;100666.72;;;16.52;80.25
67029;BME280;53934;52.142;11.738;2022-10-16T00:50:56;100666.88;;;16.62;79.97
67029;BME280;53934;52.142;11.738;2022-10-16T00:53:24;100659.75;;;16.40;80.67
67029;BME280;53934;52.142;11.738;2022-10-16T00:55:51;100657.53;;;16.34;80.65
67029;BME280;53934;52.142;11.738;2022-10-16T00:58:17;100672.75;;;16.08;81.77
67029;BME280;53934;52.142;11.738;2022-10-16T01:00:44;100675.69;;;15.93;82.81
67029;BME280;53934;52.142;11.738;2022-10-16T01:03:22;100687.50;;;15.65;83.59
67029;BME280;53934;52.142;11.738;2022-10-16T01:05:49;100689.97;;;15.55;85.12
67029;BME280;53934;52.142;11.738;2022-10-16T01:08:19;100695.19;;;15.92;84.41
67029;BME280;53934;52.142;11.738;2022-10-16T01:10:51;100697.72;;;16.28;82.63
67029;BME280;53934;52.142;11.738;2022-10-16T01:13:21;100692.19;;;16.31;80.77
67029;BME280;53934;52.142;11.738;2022-10-16T01:15:50;100696.13;;;16.15;80.66
67029;BME280;53934;52.142;11.738;2022-10-16T01:18:19;100702.56;;;15.76;83.30
67029;BME280;53934;52.142;11.738;2022-10-16T01:20:49;100698.59;;;15.70;85.76
67029;BME280;53934;52.142;11.738;2022-10-16T01:23:20;100702.00;;;16.07;83.97
67029;BME280;53934;52.142;11.738;2022-10-16T01:28:38;100703.31;;;16.13;82.66
67029;BME280;53934;52.142;11.738;2022-10-16T01:31:05;100704.16;;;16.13;81.97
67029;BME280;53934;52.142;11.738;2022-10-16T01:33:33;100702.28;;;15.91;84.38
67029;BME280;53934;52.142;11.738;2022-10-16T01:36:03;100711.47;;;16.10;84.11
67029;BME280;53934;52.142;11.738;2022-10-16T01:38:33;100719.66;;;15.83;85.28
67029;BME280;53934;52.142;11.738;2022-10-16T01:41:00;100710.31;;;15.90;85.81
67029;BME280;53934;52.142;11.738;2022-10-16T01:43:30;100709.25;;;16.27;84.26
67029;BME280;53934;52.142;11.738;2022-10-16T01:45:59;100696.13;;;16.61;83.10
67029;BME280;53934;52.142;11.738;2022-10-16T01:48:26;100693.19;;;16.52;82.41
67029;BME280;53934;52.142;11.738;2022-10-16T01:50:54;100701.75;;;16.10;84.25
67029;BME280;53934;52.142;11.738;2022-10-16T01:53:22;100698.91;;;16.24;84.18
67029;BME280;53934;52.142;11.738;2022-10-16T01:55:50;100708.22;;;16.52;82.89
67029;BME280;53934;52.142;11.738;2022-10-16T01:58:18;100697.34;;;16.79;81.06
67029;BME280;53934;52.142;11.738;2022-10-16T02:00:45;100710.81;;;16.87;80.42
67029;BME280;53934;52.142;11.738;2022-10-16T02:03:14;100706.84;;;16.59;80.39
67029;BME280;53934;52.142;11.738;2022-10-16T02:05:42;100703.66;;;16.54;80.41
67029;BME280;53934;52.142;11.738;2022-10-16T02:08:11;100698.91;;;16.24;81.89
67029;BME280;53934;52.142;11.738;2022-10-16T02:10:37;100704.38;;;15.39;87.48
67029;BME280;53934;52.142;11.738;2022-10-16T02:13:05;100709.50;;;15.66;87.85
67029;BME280;53934;52.142;11.738;2022-10-16T02:15:32;100701.50;;;16.13;85.86
67029;BME280;53934;52.142;11.738;2022-10-16T02:17:58;100709.59;;;15.64;88.00
67029;BME280;53934;52.142;11.738;2022-10-16T02:20:27;100706.75;;;16.26;84.83
67029;BME280;53934;52.142;11.738;2022-10-16T02:22:54;100704.84;;;16.39;83.26
67029;BME280;53934;52.142;11.738;2022-10-16T02:25:24;100704.25;;;16.12;84.42
67029;BME280;53934;52.142;11.738;2022-10-16T02:27:53;100713.72;;;15.92;84.91
67029;BME280;53934;52.142;11.738;2022-10-16T02:30:22;100709.66;;;15.99;85.17
67029;BME280;53934;52.142;11.738;2022-10-16T02:32:51;100715.06;;;15.74;85.74
67029;BME280;53934;52.142;11.738;2022-10-16T02:35:18;100712.19;;;16.12;83.94
67029;BME280;53934;52.142;11.738;2022-10-16T02:37:47;100706.38;;;15.95;83.67
67029;BME280;53934;52.142;11.738;2022-10-16T02:40:14;100717.97;;;15.58;84.91
67029;BME280;53934;52.142;11.738;2022-10-16T02:42:41;100722.97;;;15.50;85.29
67029;BME280;53934;52.142;11.738;2022-10-16T02:45:09;100723.91;;;15.96;82.97
67029;BME280;53934;52.142;11.738;2022-10-16T02:47:35;100721.06;;;15.99;82.68
67029;BME280;53934;52.142;11.738;2022-10-16T02:50:02;100723.06;;;16.20;81.29
67029;BME280;53934;52.142;11.738;2022-10-16T02:52:29;100726.69;;;15.95;81.98
67029;BME280;53934;52.142;11.738;2022-10-16T02:54:56;100737.84;;;15.87;82.67
67029;BME280;53934;52.142;11.738;2022-10-16T02:57:22;100735.84;;;16.26;80.89
67029;BME280;53934;52.142;11.738;2022-10-16T02:59:49;100744.72;;;16.60;79.64
67029;BME280;53934;52.142;11.738;2022-10-16T03:02:15;100736.34;;;16.77;79.04
67029;BME280;53934;52.142;11.738;2022-10-16T03:04:42;100741.06;;;17.07;77.38
67029;BME280;53934;52.142;11.738;2022-10-16T03:07:08;100736.97;;;17.02;77.27
67029;BME280;53934;52.142;11.738;2022-10-16T03:09:34;100736.72;;;17.06;77.44
67029;BME280;53934;52.142;11.738;2022-10-16T03:12:02;100730.69;;;17.03;77.58
67029;BME280;53934;52.142;11.738;2022-10-16T03:14:28;100736.31;;;16.66;79.14
67029;BME280;53934;52.142;11.738;2022-10-16T03:16:55;100745.06;;;16.20;81.81
67029;BME280;53934;52.142;11.738;2022-10-16T03:19:21;100743.16;;;16.33;81.86
67029;BME280;53934;52.142;11.738;2022-10-16T03:21:47;100742.41;;;16.55;80.45
67029;BME280;53934;52.142;11.738;2022-10-16T03:24:14;100748.94;;;16.27;81.74
67029;BME280;53934;52.142;11.738;2022-10-16T03:26:40;100737.56;;;16.49;80.78
67029;BME280;53934;52.142;11.738;2022-10-16T03:29:07;100738.16;;;16.41;80.89
67029;BME280;53934;52.142;11.738;2022-10-16T03:31:34;100740.75;;;16.30;81.81
67029;BME280;53934;52.142;11.738;2022-10-16T03:34:00;100749.75;;;16.51;81.21
67029;BME280;53934;52.142;11.738;2022-10-16T03:36:26;100744.06;;;16.91;79.17
67029;BME280;53934;52.142;11.738;2022-10-16T03:38:53;100747.31;;;16.94;78.99
67029;BME280;53934;52.142;11.738;2022-10-16T03:41:19;100742.84;;;16.95;78.35
67029;BME280;53934;52.142;11.738;2022-10-16T03:43:45;100748.38;;;17.36;77.08
67029;BME280;53934;52.142;11.738;2022-10-16T03:46:13;100748.38;;;17.36;76.90
67029;BME280;53934;52.142;11.738;2022-10-16T03:48:40;100739.25;;;17.07;77.85
67029;BME280;53934;52.142;11.738;2022-10-16T03:51:06;100737.66;;;17.16;77.73
67029;BME280;53934;52.142;11.738;2022-10-16T03:53:32;100731.88;;;17.33;77.13
67029;BME280;53934;52.142;11.738;2022-10-16T03:55:59;100735.97;;;17.26;77.23
67029;BME280;53934;52.142;11.738;2022-10-16T03:58:25;100733.94;;;17.18;77.63
67029;BME280;53934;52.142;11.738;2022-10-16T04:00:51;100737.78;;;17.36;77.09
67029;BME280;53934;52.142;11.738;2022-10-16T04:03:19;100734.41;;;17.12;77.11
67029;BME280;53934;52.142;11.738;2022-10-16T04:05:46;100736.59;;;17.07;77.87
67029;BME280;53934;52.142;11.738;2022-10-16T04:08:12;100739.09;;;16.86;79.18
67029;BME280;53934;52.142;11.738;2022-10-16T04:10:39;100747.81;;;16.53;81.54
67029;BME280;53934;52.142;11.738;2022-10-16T04:13:05;100749.41;;;16.56;81.99
67029;BME280;53934;52.142;11.738;2022-10-16T04:15:31;100740.53;;;16.79;81.47
67029;BME280;53934;52.142;11.738;2022-10-16T04:17:57;100740.31;;;17.16;80.19
67029;BME280;53934;52.142;11.738;2022-10-16T04:20:25;100742.59;;;16.98;81.18
67029;BME280;53934;52.142;11.738;2022-10-16T04:22:51;100748.41;;;17.14;80.57
67029;BME280;53934;52.142;11.738;2022-10-16T04:25:18;100746.22;;;16.97;79.75
67029;BME280;53934;52.142;11.738;2022-10-16T04:27:44;100751.75;;;17.05;80.21
67029;BME280;53934;52.142;11.738;2022-10-16T04:30:10;100764.50;;;17.33;79.75
67029;BME280;53934;52.142;11.738;2022-10-16T04:32:36;100755.94;;;17.41;78.96
67029;BME280;53934;52.142;11.738;2022-10-16T04:35:03;100754.50;;;17.59;78.07
67029;BME280;53934;52.142;11.738;2022-10-16T04:37:31;100755.84;;;16.87;81.23
67029;BME280;53934;52.142;11.738;2022-10-16T04:39:57;100758.13;;;16.80;81.68
67029;BME280;53934;52.142;11.738;2022-10-16T04:42:23;100767.91;;;17.13;80.65
67029;BME280;53934;52.142;11.738;2022-10-16T04:44:50;100775.97;;;17.12;80.79
67029;BME280;53934;52.142;11.738;2022-10-16T04:47:16;100766.78;;;16.82;82.71
67029;BME280;53934;52.142;11.738;2022-10-16T04:49:42;100779.19;;;16.93;82.41
67029;BME280;53934;52.142;11.738;2022-10-16T04:52:08;100780.28;;;16.55;83.65
67029;BME280;53934;52.142;11.738;2022-10-16T04:54:36;100789.81;;;16.23;85.82
67029;BME280;53934;52.142;11.738;2022-10-16T04:57:02;100787.13;;;16.12;87.27
67029;BME280;53934;52.142;11.738;2022-10-16T04:59:30;100785.47;;;15.75;89.81
67029;BME280;53934;52.142;11.738;2022-10-16T05:01:56;100769.72;;;15.97;89.14
67029;BME280;53934;52.142;11.738;2022-10-16T05:04:22;100776.28;;;16.39;87.01
67029;BME280;53934;52.142;11.738;2022-10-16T05:06:49;100774.75;;;16.47;85.76
67029;BME280;53934;52.142;11.738;2022-10-16T05:09:15;100772.66;;;16.29;86.90
67029;BME280;53934;52.142;11.738;2022-10-16T05:11:43;100775.72;;;16.23;86.97
67029;BME280;53934;52.142;11.738;2022-10-16T05:14:09;100779.16;;;16.36;85.92
67029;BME280;53934;52.142;11.738;2022-10-16T05:16:35;100787.16;;;16.23;87.15
67029;BME280;53934;52.142;11.738;2022-10-16T05:19:01;100790.31;;;16.04;88.09
67029;BME280;53934;52.142;11.738;2022-10-16T05:21:28;100783.88;;;15.85;89.22
67029;BME280;53934;52.142;11.738;2022-10-16T05:23:54;100785.44;;;16.11;87.20
67029;BME280;53934;52.142;11.738;2022-10-16T05:26:20;100783.19;;;16.52;85.02
67029;BME280;53934;52.142;11.738;2022-10-16T05:28:48;100790.47;;;16.62;84.10
67029;BME280;53934;52.142;11.738;2022-10-16T05:31:15;100792.00;;;15.82;88.95
67029;BME280;53934;52.142;11.738;2022-10-16T05:33:41;100795.44;;;16.19;88.53
67029;BME280;53934;52.142;11.738;2022-10-16T05:36:09;100798.22;;;16.52;86.22
67029;BME280;53934;52.142;11.738;2022-10-16T05:38:35;100810.78;;;16.37;87.11
67029;BME280;53934;52.142;11.738;2022-10-16T05:41:03;100799.91;;;16.77;85.17
67029;BME280;53934;52.142;11.738;2022-10-16T05:43:30;100803.13;;;16.69;85.08
67029;BME280;53934;52.142;11.738;2022-10-16T05:45:58;100799.59;;;16.58;85.52
67029;BME280;53934;52.142;11.738;2022-10-16T05:48:25;100812.56;;;16.26;87.03
67029;BME280;53934;52.142;11.738;2022-10-16T05:50:56;100816.50;;;16.20;87.35
67029;BME280;53934;52.142;11.738;2022-10-16T05:53:22;100820.56;;;16.37;86.77
67029;BME280;53934;52.142;11.738;2022-10-16T05:55:51;100823.09;;;16.15;87.44
67029;BME280;53934;52.142;11.738;2022-10-16T05:58:17;100831.47;;;16.08;87.51
67029;BME280;53934;52.142;11.738;2022-10-16T06:00:44;100840.94;;;16.24;87.49
67029;BME280;53934;52.142;11.738;2022-10-16T06:03:11;100844.81;;;16.07;88.97
67029;BME280;53934;52.142;11.738;2022-10-16T06:05:38;100838.25;;;15.76;90.26
67029;BME280;53934;52.142;11.738;2022-10-16T06:08:04;100832.34;;;15.73;90.33
67029;BME280;53934;52.142;11.738;2022-10-16T06:10:30;100836.53;;;16.12;89.02
67029;BME280;53934;52.142;11.738;2022-10-16T06:12:56;100839.28;;;16.34;87.24
67029;BME280;53934;52.142;11.738;2022-10-16T06:15:23;100830.19;;;16.62;85.93
67029;BME280;53934;52.142;11.738;2022-10-16T06:17:49;100833.41;;;17.11;83.61
67029;BME280;53934;52.142;11.738;2022-10-16T06:20:17;100820.00;;;16.90;83.51
67029;BME280;53934;52.142;11.738;2022-10-16T06:22:43;100823.97;;;16.74;84.20
67029;BME280;53934;52.142;11.738;2022-10-16T06:25:09;100834.56;;;16.74;85.00
67029;BME280;53934;52.142;11.738;2022-10-16T06:27:35;100841.84;;;17.16;83.69
67029;BME280;53934;52.142;11.738;2022-10-16T06:30:02;100828.00;;;17.13;83.77
67029;BME280;53934;52.142;11.738;2022-10-16T06:32:28;100834.50;;;16.39;86.94
67029;BME280;53934;52.142;11.738;2022-10-16T06:34:55;100843.63;;;17.04;83.73
67029;BME280;53934;52.142;11.738;2022-10-16T06:37:22;100842.97;;;17.36;82.71
67029;BME280;53934;52.142;11.738;2022-10-16T06:39:49;100846.41;;;17.03;83.96
67029;BME280;53934;52.142;11.738;2022-10-16T06:42:17;100865.94;;;17.24;83.22
67029;BME280;53934;52.142;11.738;2022-10-16T06:44:43;100879.09;;;17.48;82.47
67029;BME280;53934;52.142;11.738;2022-10-16T06:47:09;100882.88;;;17.79;80.72
67029;BME280;53934;52.142;11.738;2022-10-16T06:49:36;100888.34;;;17.20;83.17
67029;BME280;53934;52.142;11.738;2022-10-16T06:52:02;100887.41;;;17.21;83.15
67029;BME280;53934;52.142;11.738;2022-10-16T06:54:31;100878.19;;;16.92;84.92
67029;BME280;53934;52.142;11.738;2022-10-16T06:56:57;100879.47;;;17.32;83.00
67029;BME280;53934;52.142;11.738;2022-10-16T06:59:25;100885.00;;;17.29;83.12
67029;BME280;53934;52.142;11.738;2022-10-16T07:01:51;100882.88;;;17.57;81.88
67029;BME280;53934;52.142;11.738;2022-10-16T07:04:17;100889.13;;;17.89;80.41
67029;BME280;53934;52.142;11.738;2022-10-16T07:06:43;100885.25;;;17.93;80.21
67029;BME280;53934;52.142;11.738;2022-10-16T07:09:10;100887.06;;;17.92;79.72
67029;BME280;53934;52.142;11.738;2022-10-16T07:11:38;100892.16;;;17.62;81.10
67029;BME280;53934;52.142;11.738;2022-10-16T07:14:05;100906.50;;;17.60;82.11
67029;BME280;53934;52.142;11.738;2022-10-16T07:16:37;100905.16;;;17.54;82.21
67029;BME280;53934;52.142;11.738;2022-10-16T07:19:03;100913.53;;;17.26;83.35
67029;BME280;53934;52.142;11.738;2022-10-16T07:21:30;100912.75;;;17.47;83.11
67029;BME280;53934;52.142;11.738;2022-10-16T07:24:00;100924.50;;;17.21;84.52
67029;BME280;53934;52.142;11.738;2022-10-16T07:26:27;100930.97;;;17.06;84.92
67029;BME280;53934;52.142;11.738;2022-10-16T07:28:56;100927.81;;;17.12;84.23
67029;BME280;53934;52.142;11.738;2022-10-16T07:31:22;100926.78;;;17.26;84.09
67029;BME280;53934;52.142;11.738;2022-10-16T07:33:49;100928.91;;;17.67;82.61
67029;BME280;53934;52.142;11.738;2022-10-16T07:36:16;100927.84;;;17.69;82.47
67029;BME280;53934;52.142;11.738;2022-10-16T07:38:43;100927.66;;;17.48;83.06
67029;BME280;53934;52.142;11.738;2022-10-16T07:41:10;100936.34;;;17.50;83.48
67029;BME280;53934;52.142;11.738;2022-10-16T07:43:37;100940.50;;;17.88;81.66
67029;BME280;53934;52.142;11.738;2022-10-16T07:46:04;100955.56;;;18.21;80.19
67029;BME280;53934;52.142;11.738;2022-10-16T07:48:32;100965.91;;;18.35;79.50
67029;BME280;53934;52.142;11.738;2022-10-16T07:50:59;100969.38;;;18.46;78.96
67029;BME280;53934;52.142;11.738;2022-10-16T07:53:26;100976.16;;;18.62;78.13
67029;BME280;53934;52.142;11.738;2022-10-16T07:55:56;100972.44;;;18.09;80.01
67029;BME280;53934;52.142;11.738;2022-10-16T07:58:22;100972.19;;;17.78;80.91
67029;BME280;53934;52.142;11.738;2022-10-16T08:00:49;100974.75;;;18.02;80.51
67029;BME280;53934;52.142;11.738;2022-10-16T08:03:16;100983.75;;;18.33;78.96
67029;BME280;53934;52.142;11.738;2022-10-16T08:05:43;100982.22;;;17.97;80.86
67029;BME280;53934;52.142;11.738;2022-10-16T08:08:11;100978.34;;;17.68;82.02
67029;BME280;53934;52.142;11.738;2022-10-16T08:10:38;100981.84;;;17.90;81.15
67029;BME280;53934;52.142;11.738;2022-10-16T08:13:04;100978.34;;;17.79;81.63
67029;BME280;53934;52.142;11.738;2022-10-16T08:15:30;100984.50;;;17.68;82.45
67029;BME280;53934;52.142;11.738;2022-10-16T08:17:57;100981.72;;;17.59;82.78
67029;BME280;53934;52.142;11.738;2022-10-16T08:20:25;100982.72;;;17.91;81.64
67029;BME280;53934;52.142;11.738;2022-10-16T08:22:51;101005.53;;;18.81;79.13
67029;BME280;53934;52.142;11.738;2022-10-16T08:25:19;101004.31;;;19.49;76.32
67029;BME280;53934;52.142;11.738;2022-10-16T08:27:45;101003.25;;;19.81;74.42
67029;BME280;53934;52.142;11.738;2022-10-16T08:30:11;101001.81;;;20.97;70.46
67029;BME280;53934;52.142;11.738;2022-10-16T08:32:38;101001.56;;;22.04;66.72
67029;BME280;53934;52.142;11.738;2022-10-16T08:35:04;101005.69;;;22.98;61.46
67029;BME280;53934;52.142;11.738;2022-10-16T08:37:33;101011.25;;;23.22;60.65
67029;BME280;53934;52.142;11.738;2022-10-16T08:39:59;101012.00;;;23.33;61.13
67029;BME280;53934;52.142;11.738;2022-10-16T08:42:31;101003.00;;;23.16;59.13
67029;BME280;53934;52.142;11.738;2022-10-16T08:47:49;101010.41;;;22.87;59.81
67029;BME280;53934;52.142;11.738;2022-10-16T08:50:22;101021.91;;;22.69;60.02
67029;BME280;53934;52.142;11.738;2022-10-16T08:55:19;101031.44;;;22.17;60.41
67029;BME280;53934;52.142;11.738;2022-10-16T08:57:52;101031.13;;;21.74;62.45
67029;BME280;53934;52.142;11.738;2022-10-16T09:00:18;101040.94;;;21.83;62.13
67029;BME280;53934;52.142;11.738;2022-10-16T09:02:45;101039.38;;;21.80;62.56
67029;BME280;53934;52.142;11.738;2022-10-16T09:05:22;101042.66;;;21.36;63.71
67029;BME280;53934;52.142;11.738;2022-10-16T09:07:53;101055.31;;;21.15;64.85
67029;BME280;53934;52.142;11.738;2022-10-16T09:10:27;101063.91;;;22.22;61.81
67029;BME280;53934;52.142;11.738;2022-10-16T09:12:57;101064.22;;;23.19;59.32
67029;BME280;53934;52.142;11.738;2022-10-16T09:15:29;101065.91;;;23.55;57.22
67029;BME280;53934;52.142;11.738;2022-10-16T09:18:00;101056.66;;;23.67;57.14
67029;BME280;53934;52.142;11.738;2022-10-16T09:20:29;101066.44;;;23.41;57.10
67029;BME280;53934;52.142;11.738;2022-10-16T09:23:00;101075.63;;;23.39;56.99
67029;BME280;53934;52.142;11.738;2022-10-16T09:25:35;101064.91;;;23.39;56.15
67029;BME280;53934;52.142;11.738;2022-10-16T09:28:02;101059.59;;;22.76;57.92
67029;BME280;53934;52.142;11.738;2022-10-16T09:30:29;101053.59;;;22.64;58.27
67029;BME280;53934;52.142;11.738;2022-10-16T09:32:55;101058.53;;;22.59;58.00
67029;BME280;53934;52.142;11.738;2022-10-16T09:35:25;101060.44;;;22.12;59.27
67029;BME280;53934;52.142;11.738;2022-10-16T09:37:54;101065.94;;;21.82;59.71
67029;BME280;53934;52.142;11.738;2022-10-16T09:40:24;101059.75;;;22.01;59.14
67029;BME280;53934;52.142;11.738;2022-10-16T09:42:54;101057.41;;;22.25;59.38
67029;BME280;53934;52.142;11.738;2022-10-16T09:45:23;101063.94;;;22.03;59.29
67029;BME280;53934;52.142;11.738;2022-10-16T09:47:49;101067.94;;;21.80;59.14
67029;BME280;53934;52.142;11.738;2022-10-16T09:50:20;101063.75;;;21.49;59.37
67029;BME280;53934;52.142;11.738;2022-10-16T09:52:47;101072.72;;;21.57;59.71
67029;BME280;53934;52.142;11.738;2022-10-16T09:55:15;101079.59;;;21.79;59.33
67029;BME280;53934;52.142;11.738;2022-10-16T09:57:48;101074.53;;;21.47;59.54
67029;BME280;53934;52.142;11.738;2022-10-16T10:00:16;101073.47;;;20.81;61.19
67029;BME280;53934;52.142;11.738;2022-10-16T10:02:43;101090.50;;;20.59;61.76
67029;BME280;53934;52.142;11.738;2022-10-16T10:05:17;101090.63;;;21.07;62.01
67029;BME280;53934;52.142;11.738;2022-10-16T10:07:44;101081.38;;;22.17;59.59
67029;BME280;53934;52.142;11.738;2022-10-16T10:10:18;101082.72;;;22.21;56.73
67029;BME280;53934;52.142;11.738;2022-10-16T10:12:45;101086.97;;;22.23;55.79
67029;BME280;53934;52.142;11.738;2022-10-16T10:15:12;101073.56;;;22.70;56.70
67029;BME280;53934;52.142;11.738;2022-10-16T10:17:46;101076.94;;;23.35;54.42
67029;BME280;53934;52.142;11.738;2022-10-16T10:20:18;101084.94;;;23.35;53.52
67029;BME280;53934;52.142;11.738;2022-10-16T10:22:47;101080.28;;;22.47;54.88
67029;BME280;53934;52.142;11.738;2022-10-16T10:25:22;101090.31;;;22.25;56.86
67029;BME280;53934;52.142;11.738;2022-10-16T10:28:04;101086.78;;;21.50;57.11
67029;BME280;53934;52.142;11.738;2022-10-16T10:30:34;101096.38;;;21.03;58.32
67029;BME280;53934;52.142;11.738;2022-10-16T10:33:09;101095.13;;;20.97;59.89
67029;BME280;53934;52.142;11.738;2022-10-16T10:35:40;101101.91;;;21.11;59.23
67029;BME280;53934;52.142;11.738;2022-10-16T10:38:16;101105.50;;;21.00;59.46
67029;BME280;53934;52.142;11.738;2022-10-16T10:40:48;101096.09;;;20.96;58.27
67029;BME280;53934;52.142;11.738;2022-10-16T10:43:20;101109.50;;;21.15;58.90
67029;BME280;53934;52.142;11.738;2022-10-16T10:45:51;101105.00;;;21.25;57.60
67029;BME280;53934;52.142;11.738;2022-10-16T10:48:23;101111.47;;;21.71;56.25
67029;BME280;53934;52.142;11.738;2022-10-16T10:50:54;101102.78;;;21.98;55.40
67029;BME280;53934;52.142;11.738;2022-10-16T10:53:25;101099.34;;;22.52;53.69
67029;BME280;53934;52.142;11.738;2022-10-16T11:10:28;101110.78;;;20.20;58.16
67029;BME280;53934;52.142;11.738;2022-10-16T11:12:58;101117.31;;;20.58;57.25
67029;BME280;53934;52.142;11.738;2022-10-16T11:15:28;101119.38;;;20.94;57.25
67029;BME280;53934;52.142;11.738;2022-10-16T11:18:00;101111.75;;;21.20;56.55
67029;BME280;53934;52.142;11.738;2022-10-16T11:20:32;101114.41;;;21.29;55.19
67029;BME280;53934;52.142;11.738;2022-10-16T11:23:02;101109.78;;;21.79;55.97
67029;BME280;53934;52.142;11.738;2022-10-16T11:25:33;101107.72;;;22.39;56.22
67029;BME280;53934;52.142;11.738;2022-10-16T11:28:02;101108.00;;;23.00;52.42
67029;BME280;53934;52.142;11.738;2022-10-16T11:30:35;101111.47;;;23.28;50.01
67029;BME280;53934;52.142;11.738;2022-10-16T11:33:26;101108.31;;;22.97;48.87
67029;BME280;53934;52.142;11.738;2022-10-16T11:36:00;101118.28;;;22.95;49.63
67029;BME280;53934;52.142;11.738;2022-10-16T11:38:32;101123.94;;;23.19;48.78
67029;BME280;53934;52.142;11.738;2022-10-16T11:41:15;101127.25;;;22.76;49.30
67029;BME280;53934;52.142;11.738;2022-10-16T11:43:43;101129.97;;;23.39;48.46
67029;BME280;53934;52.142;11.738;2022-10-16T11:46:16;101133.47;;;23.40;48.47
67029;BME280;53934;52.142;11.738;2022-10-16T11:48:48;101127.78;;;23.35;46.93
67029;BME280;53934;52.142;11.738;2022-10-16T11:51:20;101131.81;;;23.39;47.36
67029;BME280;53934;52.142;11.738;2022-10-16T11:53:55;101134.31;;;23.50;46.79
67029;BME280;53934;52.142;11.738;2022-10-16T11:56:27;101133.91;;;23.62;45.63
67029;BME280;53934;52.142;11.738;2022-10-16T11:58:58;101144.75;;;23.96;45.51
67029;BME280;53934;52.142;11.738;2022-10-16T12:01:31;101140.69;;;24.36;45.45
67029;BME280;53934;52.142;11.738;2022-10-16T12:04:11;101138.59;;;24.21;44.16
67029;BME280;53934;52.142;11.738;2022-10-16T12:06:43;101132.06;;;24.50;45.05
67029;BME280;53934;52.142;11.738;2022-10-16T12:09:15;101143.94;;;24.47;42.46
67029;BME280;53934;52.142;11.738;2022-10-16T12:11:44;101147.28;;;23.98;43.45
67029;BME280;53934;52.142;11.738;2022-10-16T12:14:32;101152.47;;;23.99;43.43
67029;BME280;53934;52.142;11.738;2022-10-16T12:17:02;101148.84;;;23.65;42.00
67029;BME280;53934;52.142;11.738;2022-10-16T12:22:29;101152.19;;;23.04;45.71
67029;BME280;53934;52.142;11.738;2022-10-16T12:24:56;101155.41;;;23.08;43.82
67029;BME280;53934;52.142;11.738;2022-10-16T12:27:28;101155.50;;;23.16;44.34
67029;BME280;53934;52.142;11.738;2022-10-16T12:29:57;101157.84;;;23.01;43.87
67029;BME280;53934;52.142;11.738;2022-10-16T12:32:30;101161.28;;;23.11;43.82
67029;BME280;53934;52.142;11.738;2022-10-16T12:34:58;101148.28;;;23.44;44.59
67029;BME280;53934;52.142;11.738;2022-10-16T12:37:27;101148.56;;;23.41;42.71
67029;BME280;53934;52.142;11.738;2022-10-16T12:39:56;101143.63;;;23.18;44.43
67029;BME280;53934;52.142;11.738;2022-10-16T12:42:33;101164.16;;;23.27;44.41
67029;BME280;53934;52.142;11.738;2022-10-16T12:45:00;101160.47;;;23.28;42.83
67029;BME280;53934;52.142;11.738;2022-10-16T12:47:38;101162.16;;;23.02;43.72
67029;BME280;53934;52.142;11.738;2022-10-16T12:50:37;101167.72;;;23.46;44.12
67029;BME280;53934;52.142;11.738;2022-10-16T12:53:17;101168.34;;;23.75;43.58
67029;BME280;53934;52.142;11.738;2022-10-16T12:55:56;101175.13;;;24.05;42.60
67029;BME280;53934;52.142;11.738;2022-10-16T12:58:37;101170.13;;;24.10;42.90
67029;BME280;53934;52.142;11.738;2022-10-16T13:01:17;101174.06;;;24.41;42.12
67029;BME280;53934;52.142;11.738;2022-10-16T13:03:58;101175.69;;;24.60;41.78
67029;BME280;53934;52.142;11.738;2022-10-16T13:06:35;101185.28;;;24.96;41.26
67029;BME280;53934;52.142;11.738;2022-10-16T13:09:18;101172.75;;;25.05;40.61
67029;BME280;53934;52.142;11.738;2022-10-16T13:12:01;101184.31;;;25.13;40.09
67029;BME280;53934;52.142;11.738;2022-10-16T13:15:06;101183.34;;;25.14;39.33